Bath, New Hampshire
Current Conditions -  °F | °C
As of 6:52 PM on Friday 24 Oct 2014 (Local Time) from KHIE Reporting Station
Overcast Overcast  
Wind Chill: 44°   Ceiling: 1600
Heat Index: 44°   Visibility: 10mi
Dew Point: 41°   Wind: 3mph
Humidity: 89%   Direction: 200°SSW
Pressure: 29.78"   Gusts: NA
Location:  44.17°N, 71.97°W
Report Text: KHIE 242252Z AUTO 20003KT 10SM OVC016 07/05 A2978 RMK AO2 SLP090 T00670050
Loading
Personal Weather Stations






























Interactive Weather Map
Tropical Storm Tracking
New forecast layout! Learn more

10-Day Weather Forecast

Advertisements
Track Severe Weather on mobile